sensor_id;sensor_type;location;lat;lon;timestamp;pressure;altitude;pressure_sealevel;temperature;humidity
73671;BME280;61968;48.178;11.566;2023-01-10T00:00:06;95285.75;;;2.93;49.76
73671;BME280;61968;48.178;11.566;2023-01-10T00:02:34;95284.69;;;2.88;49.46
73671;BME280;61968;48.178;11.566;2023-01-10T00:05:01;95287.31;;;2.88;49.58
73671;BME280;61968;48.178;11.566;2023-01-10T00:07:27;95297.31;;;3.19;48.93
73671;BME280;61968;48.178;11.566;2023-01-10T00:09:54;95300.16;;;3.24;48.34
73671;BME280;61968;48.178;11.566;2023-01-10T00:12:20;95312.47;;;3.30;48.42
73671;BME280;61968;48.178;11.566;2023-01-10T00:15:05;95304.50;;;3.10;48.16
73671;BME280;61968;48.178;11.566;2023-01-10T00:17:32;95312.66;;;2.94;48.63
73671;BME280;61968;48.178;11.566;2023-01-10T00:19:59;95316.00;;;2.81;49.35
73671;BME280;61968;48.178;11.566;2023-01-10T00:22:26;95319.28;;;2.90;49.26
73671;BME280;61968;48.178;11.566;2023-01-10T00:24:52;95332.63;;;3.08;49.03
73671;BME280;61968;48.178;11.566;2023-01-10T00:27:19;95321.03;;;3.17;48.39
73671;BME280;61968;48.178;11.566;2023-01-10T00:29:47;95326.75;;;3.34;48.06
73671;BME280;61968;48.178;11.566;2023-01-10T00:32:16;95329.34;;;3.34;47.75
73671;BME280;61968;48.178;11.566;2023-01-10T00:34:42;95334.19;;;3.37;48.14
73671;BME280;61968;48.178;11.566;2023-01-10T00:37:10;95337.47;;;3.11;48.69
73671;BME280;61968;48.178;11.566;2023-01-10T00:39:36;95341.81;;;2.97;48.63
73671;BME280;61968;48.178;11.566;2023-01-10T00:42:03;95343.66;;;3.03;49.13
73671;BME280;61968;48.178;11.566;2023-01-10T00:44:47;95342.38;;;2.93;49.28
73671;BME280;61968;48.178;11.566;2023-01-10T00:47:14;95351.88;;;3.00;48.96
73671;BME280;61968;48.178;11.566;2023-01-10T00:49:44;95360.66;;;2.93;49.80
73671;BME280;61968;48.178;11.566;2023-01-10T00:52:14;95360.94;;;3.32;48.79
73671;BME280;61968;48.178;11.566;2023-01-10T00:54:41;95365.19;;;3.12;49.10
73671;BME280;61968;48.178;11.566;2023-01-10T00:57:07;95367.84;;;3.19;48.89
73671;BME280;61968;48.178;11.566;2023-01-10T00:59:34;95371.75;;;3.01;48.78
73671;BME280;61968;48.178;11.566;2023-01-10T01:02:00;95379.00;;;2.99;49.06
73671;BME280;61968;48.178;11.566;2023-01-10T01:04:27;95376.19;;;3.29;48.87
73671;BME280;61968;48.178;11.566;2023-01-10T01:06:58;95381.69;;;3.13;48.62
73671;BME280;61968;48.178;11.566;2023-01-10T01:09:26;95384.72;;;3.16;48.81
73671;BME280;61968;48.178;11.566;2023-01-10T01:11:59;95387.28;;;3.09;48.58
73671;BME280;61968;48.178;11.566;2023-01-10T01:14:32;95400.34;;;2.81;49.24
73671;BME280;61968;48.178;11.566;2023-01-10T01:16:59;95403.84;;;2.95;49.09
73671;BME280;61968;48.178;11.566;2023-01-10T01:19:27;95401.75;;;2.56;49.85
73671;BME280;61968;48.178;11.566;2023-01-10T01:21:53;95410.16;;;2.51;51.25
73671;BME280;61968;48.178;11.566;2023-01-10T01:24:22;95417.28;;;2.43;50.82
73671;BME280;61968;48.178;11.566;2023-01-10T01:26:50;95417.69;;;2.03;51.80
73671;BME280;61968;48.178;11.566;2023-01-10T01:29:19;95422.63;;;2.34;51.57
73671;BME280;61968;48.178;11.566;2023-01-10T01:31:49;95421.94;;;2.69;50.11
73671;BME280;61968;48.178;11.566;2023-01-10T01:34:16;95427.78;;;2.71;50.31
73671;BME280;61968;48.178;11.566;2023-01-10T01:36:42;95437.25;;;3.00;49.99
73671;BME280;61968;48.178;11.566;2023-01-10T01:39:11;95431.72;;;3.16;48.81
73671;BME280;61968;48.178;11.566;2023-01-10T01:41:42;95434.41;;;3.23;48.45
73671;BME280;61968;48.178;11.566;2023-01-10T01:44:29;95442.00;;;3.18;48.11
73671;BME280;61968;48.178;11.566;2023-01-10T01:47:00;95443.75;;;2.82;49.60
73671;BME280;61968;48.178;11.566;2023-01-10T01:49:34;95446.72;;;3.07;48.99
73671;BME280;61968;48.178;11.566;2023-01-10T01:52:06;95465.03;;;3.29;48.09
73671;BME280;61968;48.178;11.566;2023-01-10T01:54:34;95462.41;;;3.29;48.37
73671;BME280;61968;48.178;11.566;2023-01-10T01:57:04;95463.69;;;3.40;47.67
73671;BME280;61968;48.178;11.566;2023-01-10T01:59:35;95471.75;;;3.17;48.24
73671;BME280;61968;48.178;11.566;2023-01-10T02:02:06;95470.53;;;3.19;48.50
73671;BME280;61968;48.178;11.566;2023-01-10T02:04:39;95471.78;;;3.23;48.02
73671;BME280;61968;48.178;11.566;2023-01-10T03:37:56;95592.00;;;3.02;47.83
73671;BME280;61968;48.178;11.566;2023-01-10T03:40:29;95597.94;;;2.74;48.07
73671;BME280;61968;48.178;11.566;2023-01-10T03:43:06;95599.69;;;2.74;48.06
73671;BME280;61968;48.178;11.566;2023-01-10T03:45:57;95606.97;;;2.57;49.65
73671;BME280;61968;48.178;11.566;2023-01-10T03:48:27;95614.81;;;2.93;48.58
73671;BME280;61968;48.178;11.566;2023-01-10T03:50:58;95632.91;;;1.61;50.93
73671;BME280;61968;48.178;11.566;2023-01-10T03:53:29;95631.53;;;2.18;51.07
73671;BME280;61968;48.178;11.566;2023-01-10T03:55:56;95639.53;;;2.31;50.30
73671;BME280;61968;48.178;11.566;2023-01-10T03:58:22;95630.88;;;2.75;48.72
73671;BME280;61968;48.178;11.566;2023-01-10T04:00:49;95655.84;;;2.48;49.55
73671;BME280;61968;48.178;11.566;2023-01-10T04:03:15;95646.31;;;3.49;69.12
73671;BME280;61968;48.178;11.566;2023-01-10T04:05:42;95642.13;;;4.05;47.28
73671;BME280;61968;48.178;11.566;2023-01-10T04:08:08;95641.28;;;3.48;47.16
73671;BME280;61968;48.178;11.566;2023-01-10T04:10:36;95651.25;;;2.21;50.00
73671;BME280;61968;48.178;11.566;2023-01-10T04:13:03;95654.94;;;2.41;50.49
73671;BME280;61968;48.178;11.566;2023-01-10T04:15:30;95658.00;;;2.30;49.88
73671;BME280;61968;48.178;11.566;2023-01-10T04:17:56;95672.63;;;2.01;50.23
73671;BME280;61968;48.178;11.566;2023-01-10T04:20:23;95675.09;;;2.47;49.26
73671;BME280;61968;48.178;11.566;2023-01-10T04:22:50;95683.25;;;2.59;49.14
73671;BME280;61968;48.178;11.566;2023-01-10T04:25:18;95685.69;;;2.31;49.97
73671;BME280;61968;48.178;11.566;2023-01-10T04:27:47;95706.06;;;1.98;51.47
73671;BME280;61968;48.178;11.566;2023-01-10T04:30:14;95701.28;;;2.69;49.48
73671;BME280;61968;48.178;11.566;2023-01-10T04:32:40;95707.84;;;2.35;50.21
73671;BME280;61968;48.178;11.566;2023-01-10T04:35:08;95714.59;;;2.59;49.29
73671;BME280;61968;48.178;11.566;2023-01-10T04:37:34;95710.88;;;2.68;48.85
73671;BME280;61968;48.178;11.566;2023-01-10T04:40:02;95710.91;;;2.38;49.57
73671;BME280;61968;48.178;11.566;2023-01-10T04:42:28;95717.69;;;2.10;49.97
73671;BME280;61968;48.178;11.566;2023-01-10T04:44:56;95717.09;;;2.37;50.30
73671;BME280;61968;48.178;11.566;2023-01-10T04:47:23;95726.72;;;2.37;50.90
73671;BME280;61968;48.178;11.566;2023-01-10T04:49:49;95727.38;;;2.69;49.67
73671;BME280;61968;48.178;11.566;2023-01-10T04:52:16;95735.38;;;2.52;50.51
73671;BME280;61968;48.178;11.566;2023-01-10T04:54:42;95740.06;;;2.42;50.65
73671;BME280;61968;48.178;11.566;2023-01-10T04:57:08;95739.31;;;2.18;51.99
73671;BME280;61968;48.178;11.566;2023-01-10T04:59:35;95751.63;;;2.25;52.35
73671;BME280;61968;48.178;11.566;2023-01-10T05:02:03;95759.69;;;2.38;51.83
73671;BME280;61968;48.178;11.566;2023-01-10T05:04:29;95758.44;;;2.63;51.77
73671;BME280;61968;48.178;11.566;2023-01-10T05:06:55;95766.19;;;2.72;51.16
73671;BME280;61968;48.178;11.566;2023-01-10T05:09:22;95772.75;;;2.82;50.83
73671;BME280;61968;48.178;11.566;2023-01-10T05:11:48;95777.16;;;2.52;51.49
73671;BME280;61968;48.178;11.566;2023-01-10T05:14:15;95773.78;;;2.44;51.17
73671;BME280;61968;48.178;11.566;2023-01-10T05:16:41;95784.72;;;2.77;51.32
73671;BME280;61968;48.178;11.566;2023-01-10T05:19:09;95784.00;;;2.68;50.66
73671;BME280;61968;48.178;11.566;2023-01-10T05:21:36;95787.63;;;2.82;51.42
73671;BME280;61968;48.178;11.566;2023-01-10T05:24:03;95787.63;;;2.97;50.99
73671;BME280;61968;48.178;11.566;2023-01-10T05:26:29;95796.78;;;2.63;51.51
73671;BME280;61968;48.178;11.566;2023-01-10T05:28:56;95806.06;;;2.95;51.06
73671;BME280;61968;48.178;11.566;2023-01-10T05:31:22;95800.00;;;2.35;53.18
73671;BME280;61968;48.178;11.566;2023-01-10T05:33:50;95807.31;;;1.94;54.28
73671;BME280;61968;48.178;11.566;2023-01-10T05:36:18;95815.56;;;2.44;53.17
73671;BME280;61968;48.178;11.566;2023-01-10T05:38:45;95813.09;;;2.80;51.86
73671;BME280;61968;48.178;11.566;2023-01-10T05:41:11;95821.94;;;2.94;51.55
73671;BME280;61968;48.178;11.566;2023-01-10T05:43:38;95824.88;;;2.76;51.44
73671;BME280;61968;48.178;11.566;2023-01-10T05:46:05;95826.44;;;2.85;50.99
73671;BME280;61968;48.178;11.566;2023-01-10T05:48:31;95829.09;;;2.77;51.47
73671;BME280;61968;48.178;11.566;2023-01-10T05:50:58;95839.41;;;3.08;51.03
73671;BME280;61968;48.178;11.566;2023-01-10T05:53:26;95834.44;;;2.69;51.51
73671;BME280;61968;48.178;11.566;2023-01-10T05:55:53;95847.38;;;2.24;52.26
73671;BME280;61968;48.178;11.566;2023-01-10T05:58:20;95845.22;;;2.28;52.36
73671;BME280;61968;48.178;11.566;2023-01-10T06:00:46;95848.25;;;2.54;51.42
73671;BME280;61968;48.178;11.566;2023-01-10T06:03:13;95855.19;;;2.62;50.47
73671;BME280;61968;48.178;11.566;2023-01-10T06:05:39;95857.31;;;2.44;51.26
73671;BME280;61968;48.178;11.566;2023-01-10T06:08:06;95867.53;;;2.53;51.32
73671;BME280;61968;48.178;11.566;2023-01-10T06:10:34;95867.44;;;2.24;52.52
73671;BME280;61968;48.178;11.566;2023-01-10T06:13:00;95871.66;;;2.02;52.39
73671;BME280;61968;48.178;11.566;2023-01-10T06:15:27;95874.38;;;2.31;51.46
73671;BME280;61968;48.178;11.566;2023-01-10T06:17:53;95892.53;;;2.25;51.64
73671;BME280;61968;48.178;11.566;2023-01-10T06:20:19;95897.97;;;2.15;52.95
73671;BME280;61968;48.178;11.566;2023-01-10T06:22:46;95900.16;;;2.49;51.49
73671;BME280;61968;48.178;11.566;2023-01-10T06:25:13;95899.41;;;2.40;50.49
73671;BME280;61968;48.178;11.566;2023-01-10T06:27:42;95914.31;;;2.55;51.20
73671;BME280;61968;48.178;11.566;2023-01-10T06:30:11;95904.47;;;2.80;50.92
73671;BME280;61968;48.178;11.566;2023-01-10T06:32:38;95913.28;;;3.02;49.60
73671;BME280;61968;48.178;11.566;2023-01-10T06:35:05;95910.25;;;2.06;52.00
73671;BME280;61968;48.178;11.566;2023-01-10T06:37:32;95926.34;;;2.41;50.67
73671;BME280;61968;48.178;11.566;2023-01-10T06:39:58;95937.75;;;2.17;51.47
73671;BME280;61968;48.178;11.566;2023-01-10T06:42:25;95944.59;;;2.18;51.13
73671;BME280;61968;48.178;11.566;2023-01-10T06:44:53;95944.84;;;2.00;52.50
73671;BME280;61968;48.178;11.566;2023-01-10T06:47:19;95951.88;;;2.54;50.70
73671;BME280;61968;48.178;11.566;2023-01-10T06:49:45;95961.59;;;2.37;50.73
73671;BME280;61968;48.178;11.566;2023-01-10T06:52:12;95968.34;;;1.92;52.09
73671;BME280;61968;48.178;11.566;2023-01-10T06:54:38;95972.97;;;2.13;52.97
73671;BME280;61968;48.178;11.566;2023-01-10T06:57:06;95983.56;;;2.43;51.20
73671;BME280;61968;48.178;11.566;2023-01-10T06:59:32;95987.69;;;1.58;52.87
73671;BME280;61968;48.178;11.566;2023-01-10T07:02:00;95995.78;;;1.80;52.54
73671;BME280;61968;48.178;11.566;2023-01-10T07:04:27;95995.72;;;1.32;54.57
73671;BME280;61968;48.178;11.566;2023-01-10T07:06:53;96008.00;;;1.71;53.44
73671;BME280;61968;48.178;11.566;2023-01-10T07:09:20;96015.34;;;1.76;53.03
73671;BME280;61968;48.178;11.566;2023-01-10T07:11:46;96020.78;;;1.49;53.44
73671;BME280;61968;48.178;11.566;2023-01-10T07:14:12;96028.41;;;1.59;53.14
73671;BME280;61968;48.178;11.566;2023-01-10T07:16:39;96039.94;;;1.73;52.76
73671;BME280;61968;48.178;11.566;2023-01-10T07:19:07;96045.84;;;2.14;53.00
73671;BME280;61968;48.178;11.566;2023-01-10T07:21:33;96044.75;;;2.40;50.81
73671;BME280;61968;48.178;11.566;2023-01-10T07:23:59;96050.56;;;1.71;52.38
73671;BME280;61968;48.178;11.566;2023-01-10T07:26:26;96069.28;;;1.67;52.51
73671;BME280;61968;48.178;11.566;2023-01-10T07:28:52;96069.09;;;1.85;52.00
73671;BME280;61968;48.178;11.566;2023-01-10T07:31:20;96075.13;;;1.85;51.96
73671;BME280;61968;48.178;11.566;2023-01-10T07:33:49;96095.50;;;1.90;52.69
73671;BME280;61968;48.178;11.566;2023-01-10T07:36:17;96100.97;;;2.11;51.44
73671;BME280;61968;48.178;11.566;2023-01-10T07:38:43;96101.88;;;1.55;52.45
73671;BME280;61968;48.178;11.566;2023-01-10T07:41:10;96112.03;;;2.13;52.38
73671;BME280;61968;48.178;11.566;2023-01-10T07:43:36;96118.53;;;2.26;52.36
73671;BME280;61968;48.178;11.566;2023-01-10T07:46:04;96131.00;;;2.47;51.30
73671;BME280;61968;48.178;11.566;2023-01-10T07:48:32;96127.53;;;2.23;51.36
73671;BME280;61968;48.178;11.566;2023-01-10T07:51:00;96126.19;;;2.35;51.31
73671;BME280;61968;48.178;11.566;2023-01-10T07:53:28;96144.38;;;2.44;51.41
73671;BME280;61968;48.178;11.566;2023-01-10T07:55:58;96140.84;;;2.36;51.36
73671;BME280;61968;48.178;11.566;2023-01-10T07:58:25;96141.69;;;2.68;50.30
73671;BME280;61968;48.178;11.566;2023-01-10T08:00:55;96143.19;;;2.62;50.30
73671;BME280;61968;48.178;11.566;2023-01-10T08:03:22;96147.41;;;2.72;50.38
73671;BME280;61968;48.178;11.566;2023-01-10T08:05:49;96160.34;;;2.96;49.71
73671;BME280;61968;48.178;11.566;2023-01-10T08:08:15;96163.41;;;2.69;49.92
73671;BME280;61968;48.178;11.566;2023-01-10T08:10:43;96175.28;;;2.24;50.53
73671;BME280;61968;48.178;11.566;2023-01-10T08:13:09;96175.25;;;2.40;51.02
73671;BME280;61968;48.178;11.566;2023-01-10T08:15:37;96181.69;;;2.69;50.18
73671;BME280;61968;48.178;11.566;2023-01-10T08:18:03;96182.53;;;2.92;49.24
73671;BME280;61968;48.178;11.566;2023-01-10T08:20:29;96186.44;;;2.57;50.64
73671;BME280;61968;48.178;11.566;2023-01-10T08:22:56;96197.69;;;2.57;50.32
73671;BME280;61968;48.178;11.566;2023-01-10T08:25:23;96193.41;;;2.01;51.74
73671;BME280;61968;48.178;11.566;2023-01-10T08:27:50;96201.72;;;1.55;53.19
73671;BME280;61968;48.178;11.566;2023-01-10T08:30:17;96209.72;;;1.70;53.06
73671;BME280;61968;48.178;11.566;2023-01-10T08:32:44;96209.88;;;2.09;51.73
73671;BME280;61968;48.178;11.566;2023-01-10T08:35:11;96219.94;;;2.37;51.43
73671;BME280;61968;48.178;11.566;2023-01-10T08:37:37;96213.69;;;2.62;50.81
73671;BME280;61968;48.178;11.566;2023-01-10T08:40:05;96226.78;;;2.46;51.02
73671;BME280;61968;48.178;11.566;2023-01-10T08:42:31;96231.03;;;2.23;51.86
73671;BME280;61968;48.178;11.566;2023-01-10T08:45:00;96226.16;;;2.20;51.79
73671;BME280;61968;48.178;11.566;2023-01-10T08:47:26;96236.94;;;1.67;53.05
73671;BME280;61968;48.178;11.566;2023-01-10T08:49:53;96243.47;;;1.88;52.49
73671;BME280;61968;48.178;11.566;2023-01-10T08:52:19;96234.13;;;2.34;51.84
73671;BME280;61968;48.178;11.566;2023-01-10T08:54:46;96244.75;;;2.33;50.20
73671;BME280;61968;48.178;11.566;2023-01-10T08:57:12;96239.53;;;2.25;52.23
73671;BME280;61968;48.178;11.566;2023-01-10T08:59:39;96244.75;;;2.41;50.73
73671;BME280;61968;48.178;11.566;2023-01-10T09:02:08;96257.94;;;1.58;52.30
73671;BME280;61968;48.178;11.566;2023-01-10T09:04:37;96263.66;;;1.61;53.49
73671;BME280;61968;48.178;11.566;2023-01-10T09:07:03;96272.50;;;1.93;52.49
73671;BME280;61968;48.178;11.566;2023-01-10T09:09:30;96272.78;;;2.31;51.36
73671;BME280;61968;48.178;11.566;2023-01-10T09:11:56;96276.22;;;2.31;51.05
73671;BME280;61968;48.178;11.566;2023-01-10T09:14:23;96278.16;;;2.46;51.30
73671;BME280;61968;48.178;11.566;2023-01-10T09:16:49;96291.06;;;2.14;51.25
73671;BME280;61968;48.178;11.566;2023-01-10T09:19:17;96289.00;;;1.00;53.61
73671;BME280;61968;48.178;11.566;2023-01-10T09:21:44;96291.88;;;1.23;53.98
73671;BME280;61968;48.178;11.566;2023-01-10T09:24:10;96301.09;;;0.75;54.83
73671;BME280;61968;48.178;11.566;2023-01-10T09:26:37;96306.19;;;1.27;54.13
73671;BME280;61968;48.178;11.566;2023-01-10T09:29:04;96295.44;;;1.22;53.50
73671;BME280;61968;48.178;11.566;2023-01-10T09:31:30;96289.84;;;1.52;54.25
73671;BME280;61968;48.178;11.566;2023-01-10T09:33:56;96299.13;;;1.46;53.53
73671;BME280;61968;48.178;11.566;2023-01-10T09:36:24;96304.16;;;1.39;54.59
73671;BME280;61968;48.178;11.566;2023-01-10T09:38:51;96309.56;;;1.46;55.01
73671;BME280;61968;48.178;11.566;2023-01-10T09:41:32;96300.50;;;1.75;53.71
73671;BME280;61968;48.178;11.566;2023-01-10T09:44:05;96321.22;;;2.01;52.65
73671;BME280;61968;48.178;11.566;2023-01-10T09:46:47;96326.44;;;1.84;53.50
73671;BME280;61968;48.178;11.566;2023-01-10T09:49:25;96330.34;;;1.97;52.84
73671;BME280;61968;48.178;11.566;2023-01-10T09:51:56;96328.19;;;1.76;54.31
73671;BME280;61968;48.178;11.566;2023-01-10T09:54:26;96337.03;;;1.91;52.28
73671;BME280;61968;48.178;11.566;2023-01-10T09:56:53;96332.47;;;2.01;53.06
73671;BME280;61968;48.178;11.566;2023-01-10T09:59:23;96329.88;;;2.26;52.10
73671;BME280;61968;48.178;11.566;2023-01-10T10:01:53;96336.22;;;2.07;53.43
73671;BME280;61968;48.178;11.566;2023-01-10T10:04:27;96337.19;;;1.98;52.50
73671;BME280;61968;48.178;11.566;2023-01-10T10:06:57;96322.19;;;2.49;51.44
73671;BME280;61968;48.178;11.566;2023-01-10T10:09:25;96332.31;;;2.52;51.41
73671;BME280;61968;48.178;11.566;2023-01-10T10:12:03;96331.94;;;2.79;50.74
73671;BME280;61968;48.178;11.566;2023-01-10T10:14:42;96335.44;;;2.47;51.08
73671;BME280;61968;48.178;11.566;2023-01-10T10:17:35;96335.41;;;2.31;50.98
73671;BME280;61968;48.178;11.566;2023-01-10T10:20:19;96327.91;;;2.28;51.09
73671;BME280;61968;48.178;11.566;2023-01-10T10:22:58;96326.44;;;1.84;52.19
73671;BME280;61968;48.178;11.566;2023-01-10T10:25:40;96317.13;;;1.98;50.71
73671;BME280;61968;48.178;11.566;2023-01-10T10:28:19;96313.91;;;2.45;49.86
73671;BME280;61968;48.178;11.566;2023-01-10T10:31:02;96309.63;;;2.52;48.69
73671;BME280;61968;48.178;11.566;2023-01-10T10:33:40;96310.63;;;2.02;48.53
73671;BME280;61968;48.178;11.566;2023-01-10T10:36:18;96311.94;;;2.39;48.16
73671;BME280;61968;48.178;11.566;2023-01-10T10:38:47;96315.47;;;2.71;47.26
73671;BME280;61968;48.178;11.566;2023-01-10T10:41:24;96314.38;;;2.49;48.46
73671;BME280;61968;48.178;11.566;2023-01-10T10:43:57;96299.84;;;2.54;47.37
73671;BME280;61968;48.178;11.566;2023-01-10T10:46:29;96305.41;;;2.27;48.10
73671;BME280;61968;48.178;11.566;2023-01-10T10:48:57;96308.66;;;2.45;47.99
73671;BME280;61968;48.178;11.566;2023-01-10T10:51:26;96309.66;;;2.36;48.36
73671;BME280;61968;48.178;11.566;2023-01-10T10:53:56;96296.53;;;2.77;47.75
73671;BME280;61968;48.178;11.566;2023-01-10T10:56:24;96302.53;;;2.94;46.82
73671;BME280;61968;48.178;11.566;2023-01-10T10:58:54;96306.69;;;2.55;47.49
73671;BME280;61968;48.178;11.566;2023-01-10T11:01:22;96305.53;;;2.66;46.67
73671;BME280;61968;48.178;11.566;2023-01-10T11:03:51;96312.50;;;2.90;45.78
73671;BME280;61968;48.178;11.566;2023-01-10T11:06:20;96315.47;;;2.87;44.76
73671;BME280;61968;48.178;11.566;2023-01-10T11:08:51;96312.38;;;2.67;45.16
73671;BME280;61968;48.178;11.566;2023-01-10T11:11:23;96323.50;;;2.36;44.97
73671;BME280;61968;48.178;11.566;2023-01-10T11:13:53;96330.84;;;2.25;44.55
73671;BME280;61968;48.178;11.566;2023-01-10T11:16:39;96334.75;;;1.88;44.56
73671;BME280;61968;48.178;11.566;2023-01-10T11:19:17;96335.25;;;2.57;43.99
73671;BME280;61968;48.178;11.566;2023-01-10T11:21:46;96338.19;;;2.05;44.54
73671;BME280;61968;48.178;11.566;2023-01-10T11:24:24;96329.34;;;1.89;43.86
73671;BME280;61968;48.178;11.566;2023-01-10T11:26:54;96328.84;;;1.69;44.70
73671;BME280;61968;48.178;11.566;2023-01-10T11:29:24;96339.34;;;2.02;44.38
73671;BME280;61968;48.178;11.566;2023-01-10T11:31:52;96348.13;;;2.01;43.58
73671;BME280;61968;48.178;11.566;2023-01-10T11:34:22;96333.47;;;2.25;42.86
73671;BME280;61968;48.178;11.566;2023-01-10T11:36:55;96336.38;;;2.13;42.19
73671;BME280;61968;48.178;11.566;2023-01-10T11:39:22;96335.88;;;2.67;41.92
73671;BME280;61968;48.178;11.566;2023-01-10T11:41:49;96326.72;;;2.79;42.52
73671;BME280;61968;48.178;11.566;2023-01-10T11:44:23;96334.75;;;2.12;43.28
73671;BME280;61968;48.178;11.566;2023-01-10T11:46:51;96337.69;;;2.01;43.68
73671;BME280;61968;48.178;11.566;2023-01-10T11:49:24;96339.81;;;1.98;44.11
73671;BME280;61968;48.178;11.566;2023-01-10T11:51:55;96331.94;;;2.71;42.96
73671;BME280;61968;48.178;11.566;2023-01-10T11:54:24;96343.91;;;2.33;43.87
73671;BME280;61968;48.178;11.566;2023-01-10T11:56:55;96339.63;;;2.81;43.48
73671;BME280;61968;48.178;11.566;2023-01-10T11:59:24;96344.19;;;2.87;43.11
73671;BME280;61968;48.178;11.566;2023-01-10T12:01:55;96341.72;;;2.85;43.84
73671;BME280;61968;48.178;11.566;2023-01-10T12:04:23;96338.63;;;2.90;43.26
73671;BME280;61968;48.178;11.566;2023-01-10T12:06:53;96339.59;;;2.89;43.34
73671;BME280;61968;48.178;11.566;2023-01-10T12:09:39;96351.72;;;2.66;43.13
73671;BME280;61968;48.178;11.566;2023-01-10T12:12:16;96327.81;;;3.01;42.70
73671;BME280;61968;48.178;11.566;2023-01-10T12:14:44;96331.59;;;2.99;42.34
73671;BME280;61968;48.178;11.566;2023-01-10T12:17:19;96329.00;;;2.91;42.41
73671;BME280;61968;48.178;11.566;2023-01-10T12:19:47;96325.03;;;3.03;42.53
73671;BME280;61968;48.178;11.566;2023-01-10T12:22:14;96323.97;;;2.81;43.08
73671;BME280;61968;48.178;11.566;2023-01-10T12:24:43;96323.44;;;2.94;42.28
73671;BME280;61968;48.178;11.566;2023-01-10T12:27:12;96325.44;;;2.75;42.85
73671;BME280;61968;48.178;11.566;2023-01-10T12:29:43;96319.75;;;2.63;42.88
73671;BME280;61968;48.178;11.566;2023-01-10T12:32:16;96321.88;;;3.16;42.14
73671;BME280;61968;48.178;11.566;2023-01-10T12:34:48;96332.34;;;3.16;41.09
73671;BME280;61968;48.178;11.566;2023-01-10T12:37:18;96344.66;;;2.91;41.10
73671;BME280;61968;48.178;11.566;2023-01-10T12:39:50;96343.19;;;2.80;42.37
73671;BME280;61968;48.178;11.566;2023-01-10T12:42:26;96345.47;;;2.91;41.35
73671;BME280;61968;48.178;11.566;2023-01-10T12:45:15;96362.81;;;2.76;40.33
73671;BME280;61968;48.178;11.566;2023-01-10T12:47:53;96348.75;;;2.77;40.64
73671;BME280;61968;48.178;11.566;2023-01-10T12:50:22;96347.69;;;3.19;40.46
73671;BME280;61968;48.178;11.566;2023-01-10T12:52:56;96356.94;;;3.38;40.09
73671;BME280;61968;48.178;11.566;2023-01-10T12:55:28;96360.03;;;2.77;40.87
73671;BME280;61968;48.178;11.566;2023-01-10T12:57:57;96360.19;;;2.68;41.58
73671;BME280;61968;48.178;11.566;2023-01-10T13:00:27;96368.69;;;2.70;40.96
73671;BME280;61968;48.178;11.566;2023-01-10T13:02:59;96362.31;;;2.72;41.05
73671;BME280;61968;48.178;11.566;2023-01-10T13:05:28;96362.78;;;1.94;43.28
73671;BME280;61968;48.178;11.566;2023-01-10T13:08:01;96354.63;;;2.71;41.51
73671;BME280;61968;48.178;11.566;2023-01-10T13:10:30;96351.22;;;2.86;41.62
73671;BME280;61968;48.178;11.566;2023-01-10T13:13:00;96347.53;;;3.12;40.87
73671;BME280;61968;48.178;11.566;2023-01-10T13:15:33;96351.94;;;3.20;40.82
73671;BME280;61968;48.178;11.566;2023-01-10T13:18:15;96358.16;;;3.27;40.39
73671;BME280;61968;48.178;11.566;2023-01-10T13:20:43;96351.19;;;3.50;40.13
73671;BME280;61968;48.178;11.566;2023-01-10T13:23:28;96361.09;;;3.07;40.51
73671;BME280;61968;48.178;11.566;2023-01-10T13:26:00;96364.03;;;3.29;40.19
73671;BME280;61968;48.178;11.566;2023-01-10T13:28:31;96365.34;;;3.17;39.78
73671;BME280;61968;48.178;11.566;2023-01-10T13:31:00;96368.19;;;2.82;40.77
73671;BME280;61968;48.178;11.566;2023-01-10T13:33:30;96361.50;;;2.72;42.16
73671;BME280;61968;48.178;11.566;2023-01-10T13:36:07;96356.72;;;2.92;41.17
73671;BME280;61968;48.178;11.566;2023-01-10T13:38:36;96353.66;;;2.80;42.01
73671;BME280;61968;48.178;11.566;2023-01-10T13:41:06;96355.72;;;3.01;40.53
73671;BME280;61968;48.178;11.566;2023-01-10T13:44:00;96358.47;;;3.32;40.69
73671;BME280;61968;48.178;11.566;2023-01-10T13:46:36;96363.94;;;3.53;39.77
73671;BME280;61968;48.178;11.566;2023-01-10T13:52:36;96357.72;;;3.54;40.10
73671;BME280;61968;48.178;11.566;2023-01-10T13:55:23;96356.09;;;3.53;40.20
73671;BME280;61968;48.178;11.566;2023-01-10T13:57:52;96356.78;;;3.47;40.33
73671;BME280;61968;48.178;11.566;2023-01-10T14:00:41;96364.84;;;3.69;40.04
73671;BME280;61968;48.178;11.566;2023-01-10T14:03:41;96360.75;;;3.66;39.86
73671;BME280;61968;48.178;11.566;2023-01-10T14:06:15;96357.47;;;3.33;39.62
73671;BME280;61968;48.178;11.566;2023-01-10T14:08:48;96360.41;;;3.22;39.72
73671;BME280;61968;48.178;11.566;2023-01-10T14:11:17;96374.53;;;2.88;40.71
73671;BME280;61968;48.178;11.566;2023-01-10T14:13:50;96368.28;;;3.14;40.18
73671;BME280;61968;48.178;11.566;2023-01-10T14:16:33;96369.44;;;3.03;40.32
73671;BME280;61968;48.178;11.566;2023-01-10T14:19:01;96365.81;;;3.20;39.93
73671;BME280;61968;48.178;11.566;2023-01-10T14:21:33;96364.34;;;3.18;40.25
73671;BME280;61968;48.178;11.566;2023-01-10T14:24:01;96372.81;;;3.36;40.38
73671;BME280;61968;48.178;11.566;2023-01-10T14:26:28;96359.72;;;2.80;41.35
73671;BME280;61968;48.178;11.566;2023-01-10T14:28:58;96368.31;;;3.05;41.25
73671;BME280;61968;48.178;11.566;2023-01-10T14:31:26;96367.91;;;3.25;40.27
73671;BME280;61968;48.178;11.566;2023-01-10T14:33:53;96363.16;;;3.37;40.54
73671;BME280;61968;48.178;11.566;2023-01-10T14:36:23;96365.00;;;3.28;39.94
73671;BME280;61968;48.178;11.566;2023-01-10T14:38:56;96366.00;;;3.27;40.34
73671;BME280;61968;48.178;11.566;2023-01-10T14:41:30;96367.28;;;3.31;40.54
73671;BME280;61968;48.178;11.566;2023-01-10T14:44:00;96365.53;;;3.63;39.86
73671;BME280;61968;48.178;11.566;2023-01-10T14:46:31;96360.28;;;3.63;39.82